sensor_id;sensor_type;location;lat;lon;timestamp;temperature;humidity
37426;DHT22;23285;50.180;7.036;2022-12-13T00:00:45;-0.90;99.90
37426;DHT22;23285;50.180;7.036;2022-12-13T00:03:30;-0.80;99.50
37426;DHT22;23285;50.180;7.036;2022-12-13T00:06:15;-0.90;99.40
37426;DHT22;23285;50.180;7.036;2022-12-13T00:11:47;-1.50;99.90
37426;DHT22;23285;50.180;7.036;2022-12-13T00:14:32;-1.50;99.90
37426;DHT22;23285;50.180;7.036;2022-12-13T00:20:03;-1.50;99.90
37426;DHT22;23285;50.180;7.036;2022-12-13T00:22:50;-1.10;99.90
37426;DHT22;23285;50.180;7.036;2022-12-13T00:25:35;-1.10;99.90
37426;DHT22;23285;50.180;7.036;2022-12-13T00:28:21;-1.00;99.60
37426;DHT22;23285;50.180;7.036;2022-12-13T00:31:06;-0.80;99.30
37426;DHT22;23285;50.180;7.036;2022-12-13T00:36:37;-1.30;99.90
37426;DHT22;23285;50.180;7.036;2022-12-13T00:39:22;-1.40;99.90
37426;DHT22;23285;50.180;7.036;2022-12-13T00:42:07;-0.50;99.30
37426;DHT22;23285;50.180;7.036;2022-12-13T00:44:52;-0.70;98.50
37426;DHT22;23285;50.180;7.036;2022-12-13T00:47:38;-0.80;99.10
37426;DHT22;23285;50.180;7.036;2022-12-13T00:53:08;-1.20;99.30
37426;DHT22;23285;50.180;7.036;2022-12-13T00:55:53;-1.20;98.90
37426;DHT22;23285;50.180;7.036;2022-12-13T00:58:39;-1.50;98.80
37426;DHT22;23285;50.180;7.036;2022-12-13T01:01:27;-1.60;99.40
37426;DHT22;23285;50.180;7.036;2022-12-13T01:04:12;-1.60;99.60
37426;DHT22;23285;50.180;7.036;2022-12-13T01:06:57;-1.50;99.30
37426;DHT22;23285;50.180;7.036;2022-12-13T01:09:42;-1.60;98.70
37426;DHT22;23285;50.180;7.036;2022-12-13T01:15:12;-1.80;99.90
37426;DHT22;23285;50.180;7.036;2022-12-13T01:17:57;-1.90;99.40
37426;DHT22;23285;50.180;7.036;2022-12-13T01:20:55;-2.10;99.90
37426;DHT22;23285;50.180;7.036;2022-12-13T01:23:42;-2.20;99.90
37426;DHT22;23285;50.180;7.036;2022-12-13T01:26:28;-1.90;99.90
37426;DHT22;23285;50.180;7.036;2022-12-13T01:29:13;-2.10;99.90
37426;DHT22;23285;50.180;7.036;2022-12-13T01:31:58;-1.90;99.90
37426;DHT22;23285;50.180;7.036;2022-12-13T01:34:43;-1.80;99.90
37426;DHT22;23285;50.180;7.036;2022-12-13T01:37:28;-2.20;99.90
37426;DHT22;23285;50.180;7.036;2022-12-13T01:40:13;-2.10;99.90
37426;DHT22;23285;50.180;7.036;2022-12-13T01:45:44;-2.10;99.90
37426;DHT22;23285;50.180;7.036;2022-12-13T01:48:38;-2.10;99.90
37426;DHT22;23285;50.180;7.036;2022-12-13T01:51:36;-2.30;99.90
37426;DHT22;23285;50.180;7.036;2022-12-13T01:57:17;-2.20;99.90
37426;DHT22;23285;50.180;7.036;2022-12-13T02:02:53;-2.20;99.90
37426;DHT22;23285;50.180;7.036;2022-12-13T02:05:50;-2.10;99.90
37426;DHT22;23285;50.180;7.036;2022-12-13T02:08:38;-2.00;99.90
37426;DHT22;23285;50.180;7.036;2022-12-13T02:11:24;-2.60;99.90
37426;DHT22;23285;50.180;7.036;2022-12-13T02:14:10;-2.50;99.90
37426;DHT22;23285;50.180;7.036;2022-12-13T02:20:34;-2.00;99.90
37426;DHT22;23285;50.180;7.036;2022-12-13T02:36:07;-1.30;99.90
37426;DHT22;23285;50.180;7.036;2022-12-13T02:41:49;-1.40;99.90
37426;DHT22;23285;50.180;7.036;2022-12-13T02:47:25;-1.40;99.80
37426;DHT22;23285;50.180;7.036;2022-12-13T02:50:13;-1.50;99.90
37426;DHT22;23285;50.180;7.036;2022-12-13T02:55:44;-1.30;99.50
37426;DHT22;23285;50.180;7.036;2022-12-13T02:58:32;-1.50;98.90
37426;DHT22;23285;50.180;7.036;2022-12-13T03:07:21;-1.70;99.90
37426;DHT22;23285;50.180;7.036;2022-12-13T03:10:32;-1.80;99.90
37426;DHT22;23285;50.180;7.036;2022-12-13T03:16:42;-1.60;99.90
37426;DHT22;23285;50.180;7.036;2022-12-13T03:19:28;-1.30;99.90
37426;DHT22;23285;50.180;7.036;2022-12-13T03:22:13;-1.30;99.40
37426;DHT22;23285;50.180;7.036;2022-12-13T03:24:58;-1.60;99.90
37426;DHT22;23285;50.180;7.036;2022-12-13T03:27:43;-1.60;99.90
37426;DHT22;23285;50.180;7.036;2022-12-13T03:30:30;-1.60;99.90
37426;DHT22;23285;50.180;7.036;2022-12-13T03:33:15;-1.80;99.90
37426;DHT22;23285;50.180;7.036;2022-12-13T03:38:47;-2.00;99.90
37426;DHT22;23285;50.180;7.036;2022-12-13T03:44:19;-2.60;99.90
37426;DHT22;23285;50.180;7.036;2022-12-13T03:49:50;-2.40;99.90
37426;DHT22;23285;50.180;7.036;2022-12-13T03:52:35;-2.30;99.90
37426;DHT22;23285;50.180;7.036;2022-12-13T03:55:20;-2.10;99.90
37426;DHT22;23285;50.180;7.036;2022-12-13T03:58:05;-2.40;99.90
37426;DHT22;23285;50.180;7.036;2022-12-13T04:06:22;-2.60;99.90
37426;DHT22;23285;50.180;7.036;2022-12-13T04:09:07;-2.80;99.90
37426;DHT22;23285;50.180;7.036;2022-12-13T04:11:52;-2.70;99.90
37426;DHT22;23285;50.180;7.036;2022-12-13T04:14:55;-3.00;99.90
37426;DHT22;23285;50.180;7.036;2022-12-13T04:20:25;-3.20;99.90
37426;DHT22;23285;50.180;7.036;2022-12-13T04:23:11;-3.10;99.90
37426;DHT22;23285;50.180;7.036;2022-12-13T04:25:57;-3.00;99.90
37426;DHT22;23285;50.180;7.036;2022-12-13T04:28:43;-3.00;99.90
37426;DHT22;23285;50.180;7.036;2022-12-13T04:31:28;-3.00;99.90
37426;DHT22;23285;50.180;7.036;2022-12-13T04:34:13;-3.00;99.90
37426;DHT22;23285;50.180;7.036;2022-12-13T04:36:58;-3.40;99.90
37426;DHT22;23285;50.180;7.036;2022-12-13T04:39:42;-3.20;99.90
37426;DHT22;23285;50.180;7.036;2022-12-13T04:42:28;-3.10;99.90
37426;DHT22;23285;50.180;7.036;2022-12-13T04:45:15;-3.40;99.90
37426;DHT22;23285;50.180;7.036;2022-12-13T04:48:00;-3.30;99.90
37426;DHT22;23285;50.180;7.036;2022-12-13T04:50:45;-3.30;99.90
37426;DHT22;23285;50.180;7.036;2022-12-13T04:53:30;-3.30;99.90
37426;DHT22;23285;50.180;7.036;2022-12-13T04:59:00;-3.30;99.90
37426;DHT22;23285;50.180;7.036;2022-12-13T05:01:45;-3.40;99.90
37426;DHT22;23285;50.180;7.036;2022-12-13T05:04:30;-3.50;99.90
37426;DHT22;23285;50.180;7.036;2022-12-13T05:10:01;-3.40;99.90
37426;DHT22;23285;50.180;7.036;2022-12-13T05:12:46;-3.30;99.90
37426;DHT22;23285;50.180;7.036;2022-12-13T05:15:31;-3.10;99.90
37426;DHT22;23285;50.180;7.036;2022-12-13T05:18:17;-3.60;99.90
37426;DHT22;23285;50.180;7.036;2022-12-13T05:21:04;-3.50;99.90
37426;DHT22;23285;50.180;7.036;2022-12-13T05:23:49;-3.20;99.90
37426;DHT22;23285;50.180;7.036;2022-12-13T05:29:20;-3.60;99.90
37426;DHT22;23285;50.180;7.036;2022-12-13T05:32:05;-3.40;99.90
37426;DHT22;23285;50.180;7.036;2022-12-13T05:34:50;-3.50;99.90
37426;DHT22;23285;50.180;7.036;2022-12-13T05:37:35;-3.30;99.90
37426;DHT22;23285;50.180;7.036;2022-12-13T05:40:24;-3.30;99.90
37426;DHT22;23285;50.180;7.036;2022-12-13T05:45:55;-3.00;99.90
37426;DHT22;23285;50.180;7.036;2022-12-13T05:48:40;-3.60;99.90
37426;DHT22;23285;50.180;7.036;2022-12-13T05:56:56;-3.80;99.90
37426;DHT22;23285;50.180;7.036;2022-12-13T05:59:41;-3.90;99.90
37426;DHT22;23285;50.180;7.036;2022-12-13T06:02:26;-3.80;99.90
37426;DHT22;23285;50.180;7.036;2022-12-13T06:05:11;-3.70;99.90
37426;DHT22;23285;50.180;7.036;2022-12-13T06:07:56;-4.10;99.90
37426;DHT22;23285;50.180;7.036;2022-12-13T06:10:41;-4.30;99.90
37426;DHT22;23285;50.180;7.036;2022-12-13T06:13:27;-3.90;99.90
37426;DHT22;23285;50.180;7.036;2022-12-13T06:16:12;-3.90;99.90
37426;DHT22;23285;50.180;7.036;2022-12-13T06:18:57;-4.10;99.90
37426;DHT22;23285;50.180;7.036;2022-12-13T06:21:42;-4.00;99.90
37426;DHT22;23285;50.180;7.036;2022-12-13T06:24:27;-4.10;99.90
37426;DHT22;23285;50.180;7.036;2022-12-13T06:27:13;-4.30;99.90
37426;DHT22;23285;50.180;7.036;2022-12-13T06:29:57;-4.10;99.90
37426;DHT22;23285;50.180;7.036;2022-12-13T06:32:47;-4.10;99.90
37426;DHT22;23285;50.180;7.036;2022-12-13T06:35:33;-4.00;99.90
37426;DHT22;23285;50.180;7.036;2022-12-13T06:38:18;-3.90;99.90
37426;DHT22;23285;50.180;7.036;2022-12-13T06:41:12;-4.20;99.90
37426;DHT22;23285;50.180;7.036;2022-12-13T06:43:57;-4.10;99.90
37426;DHT22;23285;50.180;7.036;2022-12-13T06:46:42;-4.30;99.90
37426;DHT22;23285;50.180;7.036;2022-12-13T06:49:27;-4.30;99.90
37426;DHT22;23285;50.180;7.036;2022-12-13T06:52:13;-4.30;99.90
37426;DHT22;23285;50.180;7.036;2022-12-13T06:54:58;-4.30;99.90
37426;DHT22;23285;50.180;7.036;2022-12-13T06:57:43;-3.80;99.90
37426;DHT22;23285;50.180;7.036;2022-12-13T07:03:14;-4.40;99.90
37426;DHT22;23285;50.180;7.036;2022-12-13T07:05:59;-4.40;99.90
37426;DHT22;23285;50.180;7.036;2022-12-13T07:08:52;-4.30;99.90
37426;DHT22;23285;50.180;7.036;2022-12-13T07:11:37;-4.40;99.90
37426;DHT22;23285;50.180;7.036;2022-12-13T07:14:22;-4.20;99.90
37426;DHT22;23285;50.180;7.036;2022-12-13T07:19:55;-4.20;99.90
37426;DHT22;23285;50.180;7.036;2022-12-13T07:22:40;-3.90;99.90
37426;DHT22;23285;50.180;7.036;2022-12-13T07:25:26;-4.10;99.90
37426;DHT22;23285;50.180;7.036;2022-12-13T07:30:59;-4.40;99.90
37426;DHT22;23285;50.180;7.036;2022-12-13T07:33:44;-4.20;99.90
37426;DHT22;23285;50.180;7.036;2022-12-13T07:36:30;-3.50;99.90
37426;DHT22;23285;50.180;7.036;2022-12-13T07:39:15;-3.60;99.90
37426;DHT22;23285;50.180;7.036;2022-12-13T07:42:00;-3.70;99.90
37426;DHT22;23285;50.180;7.036;2022-12-13T07:44:45;-3.90;99.90
37426;DHT22;23285;50.180;7.036;2022-12-13T07:47:30;-3.80;99.90
37426;DHT22;23285;50.180;7.036;2022-12-13T07:50:16;-3.70;99.90
37426;DHT22;23285;50.180;7.036;2022-12-13T07:55:48;-4.20;99.90
37426;DHT22;23285;50.180;7.036;2022-12-13T07:58:34;-4.30;99.90
37426;DHT22;23285;50.180;7.036;2022-12-13T08:01:19;-4.20;99.90
37426;DHT22;23285;50.180;7.036;2022-12-13T08:04:05;-4.10;99.90
37426;DHT22;23285;50.180;7.036;2022-12-13T08:06:50;-4.20;99.90
37426;DHT22;23285;50.180;7.036;2022-12-13T08:09:36;-4.20;99.90
37426;DHT22;23285;50.180;7.036;2022-12-13T08:12:20;-4.70;99.90
37426;DHT22;23285;50.180;7.036;2022-12-13T08:15:05;-4.50;99.90
37426;DHT22;23285;50.180;7.036;2022-12-13T08:17:54;-4.70;99.90
37426;DHT22;23285;50.180;7.036;2022-12-13T08:20:39;-4.40;99.90
37426;DHT22;23285;50.180;7.036;2022-12-13T08:23:24;-4.50;99.90
37426;DHT22;23285;50.180;7.036;2022-12-13T08:26:09;-4.20;99.90
37426;DHT22;23285;50.180;7.036;2022-12-13T08:28:54;-4.10;99.90
37426;DHT22;23285;50.180;7.036;2022-12-13T08:31:39;-4.20;99.90
37426;DHT22;23285;50.180;7.036;2022-12-13T08:34:24;-4.10;99.90
37426;DHT22;23285;50.180;7.036;2022-12-13T08:37:09;-4.10;99.90
37426;DHT22;23285;50.180;7.036;2022-12-13T08:39:54;-4.00;99.90
37426;DHT22;23285;50.180;7.036;2022-12-13T08:42:39;-3.90;99.90
37426;DHT22;23285;50.180;7.036;2022-12-13T08:45:23;-3.70;99.90
37426;DHT22;23285;50.180;7.036;2022-12-13T08:51:05;-4.00;99.90
37426;DHT22;23285;50.180;7.036;2022-12-13T08:53:52;-3.80;99.90
37426;DHT22;23285;50.180;7.036;2022-12-13T08:56:37;-3.50;99.90
37426;DHT22;23285;50.180;7.036;2022-12-13T08:59:22;-3.50;99.90
37426;DHT22;23285;50.180;7.036;2022-12-13T09:02:12;-3.50;99.90
37426;DHT22;23285;50.180;7.036;2022-12-13T09:04:57;-3.40;99.90
37426;DHT22;23285;50.180;7.036;2022-12-13T09:10:28;-3.30;99.90
37426;DHT22;23285;50.180;7.036;2022-12-13T09:13:13;-3.20;99.90
37426;DHT22;23285;50.180;7.036;2022-12-13T09:16:08;-2.50;99.90
37426;DHT22;23285;50.180;7.036;2022-12-13T09:18:55;-2.60;99.90
37426;DHT22;23285;50.180;7.036;2022-12-13T09:24:25;-2.50;99.90
37426;DHT22;23285;50.180;7.036;2022-12-13T09:27:12;-2.20;99.90
37426;DHT22;23285;50.180;7.036;2022-12-13T09:29:57;-2.10;99.90
37426;DHT22;23285;50.180;7.036;2022-12-13T09:32:42;-2.20;99.90
37426;DHT22;23285;50.180;7.036;2022-12-13T09:35:36;-2.20;99.90
37426;DHT22;23285;50.180;7.036;2022-12-13T09:38:21;-2.20;99.90
37426;DHT22;23285;50.180;7.036;2022-12-13T09:41:33;-2.30;99.90
37426;DHT22;23285;50.180;7.036;2022-12-13T09:47:15;-2.30;99.90
37426;DHT22;23285;50.180;7.036;2022-12-13T09:50:11;-2.00;99.90
37426;DHT22;23285;50.180;7.036;2022-12-13T09:52:58;-2.20;99.90
37426;DHT22;23285;50.180;7.036;2022-12-13T09:58:30;-1.80;99.90
37426;DHT22;23285;50.180;7.036;2022-12-13T10:01:16;-1.50;99.90
37426;DHT22;23285;50.180;7.036;2022-12-13T10:04:01;-1.40;99.90
37426;DHT22;23285;50.180;7.036;2022-12-13T10:06:50;-1.00;99.90
37426;DHT22;23285;50.180;7.036;2022-12-13T10:09:37;-1.20;99.90
37426;DHT22;23285;50.180;7.036;2022-12-13T10:12:22;-1.10;99.90
37426;DHT22;23285;50.180;7.036;2022-12-13T10:15:07;-0.90;99.90
37426;DHT22;23285;50.180;7.036;2022-12-13T10:17:55;-0.80;99.90
37426;DHT22;23285;50.180;7.036;2022-12-13T10:23:26;-0.80;99.90
37426;DHT22;23285;50.180;7.036;2022-12-13T10:26:12;-0.80;99.90
37426;DHT22;23285;50.180;7.036;2022-12-13T10:31:51;-0.70;99.90
37426;DHT22;23285;50.180;7.036;2022-12-13T10:34:36;-0.60;99.90
37426;DHT22;23285;50.180;7.036;2022-12-13T10:37:29;-0.40;99.90
37426;DHT22;23285;50.180;7.036;2022-12-13T10:43:19;-0.20;99.90
37426;DHT22;23285;50.180;7.036;2022-12-13T10:49:02;-0.20;99.90
37426;DHT22;23285;50.180;7.036;2022-12-13T10:51:48;0.30;99.90
37426;DHT22;23285;50.180;7.036;2022-12-13T10:54:36;0.10;99.90
37426;DHT22;23285;50.180;7.036;2022-12-13T10:57:22;0.20;99.90
37426;DHT22;23285;50.180;7.036;2022-12-13T11:03:31;0.00;99.90
37426;DHT22;23285;50.180;7.036;2022-12-13T11:06:16;0.00;99.90
37426;DHT22;23285;50.180;7.036;2022-12-13T11:09:13;0.00;99.90
37426;DHT22;23285;50.180;7.036;2022-12-13T11:12:09;0.20;99.90
37426;DHT22;23285;50.180;7.036;2022-12-13T11:17:54;0.30;99.90
37426;DHT22;23285;50.180;7.036;2022-12-13T11:20:57;-0.10;99.90
37426;DHT22;23285;50.180;7.036;2022-12-13T11:26:32;0.70;99.90
37426;DHT22;23285;50.180;7.036;2022-12-13T11:37:53;0.50;99.90
37426;DHT22;23285;50.180;7.036;2022-12-13T11:40:46;0.70;99.90
37426;DHT22;23285;50.180;7.036;2022-12-13T11:46:55;0.80;99.90
37426;DHT22;23285;50.180;7.036;2022-12-13T11:49:43;1.10;99.90
37426;DHT22;23285;50.180;7.036;2022-12-13T11:52:34;1.30;99.90
37426;DHT22;23285;50.180;7.036;2022-12-13T11:55:37;1.20;99.90
37426;DHT22;23285;50.180;7.036;2022-12-13T12:05:27;1.90;99.90
37426;DHT22;23285;50.180;7.036;2022-12-13T12:08:41;2.30;99.90
37426;DHT22;23285;50.180;7.036;2022-12-13T12:11:49;2.60;99.90
37426;DHT22;23285;50.180;7.036;2022-12-13T12:15:09;2.50;99.90
37426;DHT22;23285;50.180;7.036;2022-12-13T12:23:38;2.70;99.90
37426;DHT22;23285;50.180;7.036;2022-12-13T12:39:26;2.50;99.90
37426;DHT22;23285;50.180;7.036;2022-12-13T12:45:41;2.80;99.90
37426;DHT22;23285;50.180;7.036;2022-12-13T13:04:02;3.50;99.90
37426;DHT22;23285;50.180;7.036;2022-12-13T13:06:57;3.90;99.90
37426;DHT22;23285;50.180;7.036;2022-12-13T13:09:43;3.70;99.90
37426;DHT22;23285;50.180;7.036;2022-12-13T13:24:18;4.00;99.40
37426;DHT22;23285;50.180;7.036;2022-12-13T13:30:17;4.20;98.40
37426;DHT22;23285;50.180;7.036;2022-12-13T13:33:03;4.20;98.90
37426;DHT22;23285;50.180;7.036;2022-12-13T13:36:08;4.40;98.70
37426;DHT22;23285;50.180;7.036;2022-12-13T13:47:38;4.70;96.90
37426;DHT22;23285;50.180;7.036;2022-12-13T14:31:15;2.40;99.90
37426;DHT22;23285;50.180;7.036;2022-12-13T14:34:03;1.70;99.90
37426;DHT22;23285;50.180;7.036;2022-12-13T14:40:00;2.30;99.90
37426;DHT22;23285;50.180;7.036;2022-12-13T14:45:36;2.40;99.90
37426;DHT22;23285;50.180;7.036;2022-12-13T14:48:22;2.40;99.90
37426;DHT22;23285;50.180;7.036;2022-12-13T14:51:35;2.20;99.90
37426;DHT22;23285;50.180;7.036;2022-12-13T14:54:21;1.80;99.90
37426;DHT22;23285;50.180;7.036;2022-12-13T15:00:01;2.10;99.90
37426;DHT22;23285;50.180;7.036;2022-12-13T15:02:51;1.60;99.90
37426;DHT22;23285;50.180;7.036;2022-12-13T15:08:25;1.50;99.90
37426;DHT22;23285;50.180;7.036;2022-12-13T15:11:11;1.30;99.70
37426;DHT22;23285;50.180;7.036;2022-12-13T15:13:56;1.30;99.30
37426;DHT22;23285;50.180;7.036;2022-12-13T15:16:47;1.10;99.30
37426;DHT22;23285;50.180;7.036;2022-12-13T15:19:41;0.70;99.90
37426;DHT22;23285;50.180;7.036;2022-12-13T15:25:17;1.00;99.70
37426;DHT22;23285;50.180;7.036;2022-12-13T15:28:06;1.00;99.40
37426;DHT22;23285;50.180;7.036;2022-12-13T15:33:37;0.20;99.90
37426;DHT22;23285;50.180;7.036;2022-12-13T15:36:24;0.10;99.90
37426;DHT22;23285;50.180;7.036;2022-12-13T15:39:10;-0.20;99.90
37426;DHT22;23285;50.180;7.036;2022-12-13T15:41:56;-0.20;99.90
37426;DHT22;23285;50.180;7.036;2022-12-13T15:47:31;-0.40;99.90
37426;DHT22;23285;50.180;7.036;2022-12-13T15:50:39;-0.40;99.90
37426;DHT22;23285;50.180;7.036;2022-12-13T15:53:26;-0.90;99.90
37426;DHT22;23285;50.180;7.036;2022-12-13T15:56:35;-0.60;99.90
37426;DHT22;23285;50.180;7.036;2022-12-13T16:02:28;-0.50;99.90
37426;DHT22;23285;50.180;7.036;2022-12-13T16:05:23;-0.60;99.90
37426;DHT22;23285;50.180;7.036;2022-12-13T16:08:28;-0.50;99.90
37426;DHT22;23285;50.180;7.036;2022-12-13T16:11:29;-0.40;99.90
37426;DHT22;23285;50.180;7.036;2022-12-13T16:20:01;0.30;98.90
37426;DHT22;23285;50.180;7.036;2022-12-13T16:22:46;0.40;98.50
37426;DHT22;23285;50.180;7.036;2022-12-13T16:25:31;0.10;99.10
37426;DHT22;23285;50.180;7.036;2022-12-13T16:28:17;0.10;98.80
37426;DHT22;23285;50.180;7.036;2022-12-13T16:36:43;0.30;99.30
37426;DHT22;23285;50.180;7.036;2022-12-13T16:39:31;-0.10;99.20
37426;DHT22;23285;50.180;7.036;2022-12-13T16:45:03;-0.20;99.90
37426;DHT22;23285;50.180;7.036;2022-12-13T16:50:33;-0.50;99.90
37426;DHT22;23285;50.180;7.036;2022-12-13T16:53:19;-0.60;99.70
37426;DHT22;23285;50.180;7.036;2022-12-13T16:56:05;-0.70;99.80
37426;DHT22;23285;50.180;7.036;2022-12-13T16:58:54;-0.80;99.90
37426;DHT22;23285;50.180;7.036;2022-12-13T17:01:40;-0.80;99.50
37426;DHT22;23285;50.180;7.036;2022-12-13T17:04:26;-0.70;99.90
37426;DHT22;23285;50.180;7.036;2022-12-13T17:12:43;-0.70;99.90
37426;DHT22;23285;50.180;7.036;2022-12-13T17:18:13;-1.00;99.90
37426;DHT22;23285;50.180;7.036;2022-12-13T17:29:28;-1.20;99.90
37426;DHT22;23285;50.180;7.036;2022-12-13T17:32:13;-1.20;99.90
37426;DHT22;23285;50.180;7.036;2022-12-13T17:37:44;-1.40;99.90
37426;DHT22;23285;50.180;7.036;2022-12-13T17:40:28;-1.50;99.90
37426;DHT22;23285;50.180;7.036;2022-12-13T17:43:13;-1.60;99.90
37426;DHT22;23285;50.180;7.036;2022-12-13T17:48:47;-1.40;99.90
37426;DHT22;23285;50.180;7.036;2022-12-13T17:51:32;-1.40;99.90
37426;DHT22;23285;50.180;7.036;2022-12-13T17:59:48;-1.20;99.90
37426;DHT22;23285;50.180;7.036;2022-12-13T18:02:33;-1.00;99.90
37426;DHT22;23285;50.180;7.036;2022-12-13T18:05:22;-1.30;99.90
37426;DHT22;23285;50.180;7.036;2022-12-13T18:10:57;-1.20;99.90
37426;DHT22;23285;50.180;7.036;2022-12-13T18:16:28;-1.50;99.90
37426;DHT22;23285;50.180;7.036;2022-12-13T18:19:13;-1.90;99.90
37426;DHT22;23285;50.180;7.036;2022-12-13T18:27:29;-1.70;99.90
37426;DHT22;23285;50.180;7.036;2022-12-13T18:30:15;-1.90;99.90
37426;DHT22;23285;50.180;7.036;2022-12-13T18:35:46;-2.00;99.90
37426;DHT22;23285;50.180;7.036;2022-12-13T18:38:31;-1.90;99.90
37426;DHT22;23285;50.180;7.036;2022-12-13T18:46:52;-1.00;99.90
37426;DHT22;23285;50.180;7.036;2022-12-13T18:52:23;-0.70;99.90
37426;DHT22;23285;50.180;7.036;2022-12-13T18:55:08;-0.70;99.90
37426;DHT22;23285;50.180;7.036;2022-12-13T18:57:53;-0.80;99.90
37426;DHT22;23285;50.180;7.036;2022-12-13T19:00:38;-0.60;99.90
37426;DHT22;23285;50.180;7.036;2022-12-13T19:03:24;-0.80;99.80
37426;DHT22;23285;50.180;7.036;2022-12-13T19:06:14;-1.20;99.90
37426;DHT22;23285;50.180;7.036;2022-12-13T19:09:00;-1.40;99.90
37426;DHT22;23285;50.180;7.036;2022-12-13T19:11:45;-1.50;99.90
37426;DHT22;23285;50.180;7.036;2022-12-13T19:14:30;-1.50;99.90
37426;DHT22;23285;50.180;7.036;2022-12-13T19:17:15;-1.60;99.90
37426;DHT22;23285;50.180;7.036;2022-12-13T19:20:00;-1.30;99.90
37426;DHT22;23285;50.180;7.036;2022-12-13T19:22:46;-1.10;99.90
37426;DHT22;23285;50.180;7.036;2022-12-13T19:25:31;-1.60;99.90
37426;DHT22;23285;50.180;7.036;2022-12-13T19:28:16;-1.50;99.90
37426;DHT22;23285;50.180;7.036;2022-12-13T19:33:48;-2.30;99.90
37426;DHT22;23285;50.180;7.036;2022-12-13T19:42:03;-2.00;99.90
37426;DHT22;23285;50.180;7.036;2022-12-13T19:44:48;-2.30;99.90
37426;DHT22;23285;50.180;7.036;2022-12-13T19:47:34;-2.40;99.90
37426;DHT22;23285;50.180;7.036;2022-12-13T19:50:18;-2.40;99.90
37426;DHT22;23285;50.180;7.036;2022-12-13T19:53:04;-2.20;99.90
37426;DHT22;23285;50.180;7.036;2022-12-13T19:58:35;-2.00;99.90
37426;DHT22;23285;50.180;7.036;2022-12-13T20:01:20;-2.20;99.90
37426;DHT22;23285;50.180;7.036;2022-12-13T20:04:05;-2.40;99.90
37426;DHT22;23285;50.180;7.036;2022-12-13T20:06:50;-2.20;99.90
37426;DHT22;23285;50.180;7.036;2022-12-13T20:09:35;-1.80;99.90
37426;DHT22;23285;50.180;7.036;2022-12-13T20:12:22;-2.20;99.90
37426;DHT22;23285;50.180;7.036;2022-12-13T20:15:08;-2.20;99.90
37426;DHT22;23285;50.180;7.036;2022-12-13T20:17:53;-2.30;99.90
37426;DHT22;23285;50.180;7.036;2022-12-13T20:20:38;-1.90;99.90
37426;DHT22;23285;50.180;7.036;2022-12-13T20:23:23;-2.00;99.90
37426;DHT22;23285;50.180;7.036;2022-12-13T20:26:11;-2.10;99.90
37426;DHT22;23285;50.180;7.036;2022-12-13T20:28:56;-2.20;99.90
37426;DHT22;23285;50.180;7.036;2022-12-13T20:31:41;-2.10;99.90
37426;DHT22;23285;50.180;7.036;2022-12-13T20:34:27;-2.00;99.90
37426;DHT22;23285;50.180;7.036;2022-12-13T20:37:12;-1.70;99.90
37426;DHT22;23285;50.180;7.036;2022-12-13T20:39:57;-1.90;99.90
37426;DHT22;23285;50.180;7.036;2022-12-13T20:42:43;-1.90;99.90
37426;DHT22;23285;50.180;7.036;2022-12-13T20:45:28;-2.10;99.90
37426;DHT22;23285;50.180;7.036;2022-12-13T20:50:59;-2.10;99.90
37426;DHT22;23285;50.180;7.036;2022-12-13T20:53:47;-2.10;99.90
37426;DHT22;23285;50.180;7.036;2022-12-13T20:56:34;-1.70;99.90
37426;DHT22;23285;50.180;7.036;2022-12-13T20:59:19;-1.20;99.90
37426;DHT22;23285;50.180;7.036;2022-12-13T21:02:04;-1.50;99.90
37426;DHT22;23285;50.180;7.036;2022-12-13T21:04:52;-1.60;99.90
37426;DHT22;23285;50.180;7.036;2022-12-13T21:07:37;-1.50;99.90
37426;DHT22;23285;50.180;7.036;2022-12-13T21:10:41;-1.70;99.90
37426;DHT22;23285;50.180;7.036;2022-12-13T21:13:26;-2.00;99.90
37426;DHT22;23285;50.180;7.036;2022-12-13T21:16:11;-2.00;99.90
37426;DHT22;23285;50.180;7.036;2022-12-13T21:18:59;-2.30;99.90
37426;DHT22;23285;50.180;7.036;2022-12-13T21:21:44;-2.40;99.90
37426;DHT22;23285;50.180;7.036;2022-12-13T21:24:30;-2.40;99.90
37426;DHT22;23285;50.180;7.036;2022-12-13T21:27:15;-2.30;99.90
37426;DHT22;23285;50.180;7.036;2022-12-13T21:30:00;-2.50;99.90
37426;DHT22;23285;50.180;7.036;2022-12-13T21:35:30;-2.30;99.90
37426;DHT22;23285;50.180;7.036;2022-12-13T21:43:46;-2.70;99.90
37426;DHT22;23285;50.180;7.036;2022-12-13T21:46:31;-2.60;99.90
37426;DHT22;23285;50.180;7.036;2022-12-13T21:52:02;-2.40;99.90
37426;DHT22;23285;50.180;7.036;2022-12-13T21:54:47;-2.20;99.90
37426;DHT22;23285;50.180;7.036;2022-12-13T21:57:32;-2.20;99.90
37426;DHT22;23285;50.180;7.036;2022-12-13T22:06:07;-2.50;99.90
37426;DHT22;23285;50.180;7.036;2022-12-13T22:08:52;-2.30;99.90
37426;DHT22;23285;50.180;7.036;2022-12-13T22:11:37;-2.80;99.90
37426;DHT22;23285;50.180;7.036;2022-12-13T22:17:08;-2.90;99.90
37426;DHT22;23285;50.180;7.036;2022-12-13T22:25:24;-2.90;99.90
37426;DHT22;23285;50.180;7.036;2022-12-13T22:28:09;-2.70;99.90
37426;DHT22;23285;50.180;7.036;2022-12-13T22:30:55;-2.50;99.90
37426;DHT22;23285;50.180;7.036;2022-12-13T22:33:40;-2.60;99.90
37426;DHT22;23285;50.180;7.036;2022-12-13T22:36:25;-2.30;99.90
37426;DHT22;23285;50.180;7.036;2022-12-13T22:39:18;-2.10;99.90
37426;DHT22;23285;50.180;7.036;2022-12-13T22:42:03;-2.40;99.90
37426;DHT22;23285;50.180;7.036;2022-12-13T22:44:48;-2.30;99.90
37426;DHT22;23285;50.180;7.036;2022-12-13T22:47:33;-2.20;99.90
37426;DHT22;23285;50.180;7.036;2022-12-13T22:50:18;-2.10;99.90
37426;DHT22;23285;50.180;7.036;2022-12-13T22:53:04;-2.40;99.90
37426;DHT22;23285;50.180;7.036;2022-12-13T22:55:49;-2.40;99.90
37426;DHT22;23285;50.180;7.036;2022-12-13T23:07:55;-2.70;99.90
37426;DHT22;23285;50.180;7.036;2022-12-13T23:10:40;-2.80;99.90
37426;DHT22;23285;50.180;7.036;2022-12-13T23:13:43;-2.40;99.90
37426;DHT22;23285;50.180;7.036;2022-12-13T23:19:15;-2.40;99.90
37426;DHT22;23285;50.180;7.036;2022-12-13T23:22:01;-2.30;99.90
37426;DHT22;23285;50.180;7.036;2022-12-13T23:30:16;-2.10;99.90
37426;DHT22;23285;50.180;7.036;2022-12-13T23:33:02;-2.10;99.90
37426;DHT22;23285;50.180;7.036;2022-12-13T23:35:56;-2.20;99.90
37426;DHT22;23285;50.180;7.036;2022-12-13T23:38:42;-2.50;99.90
37426;DHT22;23285;50.180;7.036;2022-12-13T23:41:28;-2.00;99.90
37426;DHT22;23285;50.180;7.036;2022-12-13T23:44:14;-1.70;99.90
37426;DHT22;23285;50.180;7.036;2022-12-13T23:46:59;-2.10;99.90
37426;DHT22;23285;50.180;7.036;2022-12-13T23:49:44;-2.20;99.90
37426;DHT22;23285;50.180;7.036;2022-12-13T23:52:29;-2.20;99.90
37426;DHT22;23285;50.180;7.036;2022-12-13T23:55:14;-1.50;99.90
